Temp: 16.8°C   Baro: 1017.9mb
  Wind: 6.9mph   Dir: SW (218°)
  Rain: 0.0mm (0.0mm/hr)
  Solar: 26W/m2  Hum: 88%
 
Bath Spa Weather Historical Data
Daily Summary for May 18, 2018 Units:  Metric    English   Both
Next Day »
Daily Weekly Monthly Yearly Custom
  High: Low: Average:
Temperature: 20.2 °C 5.3 °C 13 °C
Dew Point: 9.6 °C 2.8 °C 6.6 °C
Humidity: 85% 48% 66%
Wind Speed: 11.1km/h 0.0km/h 2.4km/h
Wind Gust: 17.7km/h - -
Wind direction- - South
Pressure: 1026.6 hPa 1023.2 hPa -
Precipitation: 0.0 mm    
Historical Graphs
 
 
Tabular Data for May 18, 2018
Time Temperature Dew Point Pressure Wind direction Wind Speed Wind Gust Humidity Rainfall Rate (Hourly) solar
00:04 10.2 °C 5.6 °C 1026.6 hPa Calm   3.2 km/h 73% 0.0 mm 0.0 W/m2
00:09 10.1 °C 5.5 °C 1026.6 hPa Calm   6.4 km/h 73% 0.0 mm 0.0 W/m2
00:14 9.9 °C 5.3 °C 1026.6 hPa ESE 1.4 km/h 6.4 km/h 73% 0.0 mm 0.0 W/m2
00:19 9.9 °C 5.3 °C 1026.6 hPa East 1.4 km/h 3.2 km/h 73% 0.0 mm 0.0 W/m2
00:24 9.8 °C 5.2 °C 1026.6 hPa ESE 4.7 km/h 9.7 km/h 73% 0.0 mm 0.0 W/m2
00:29 9.7 °C 5.1 °C 1026.6 hPa ESE 3.2 km/h 4.8 km/h 73% 0.0 mm 0.0 W/m2
00:34 9.5 °C 5.1 °C 1026.6 hPa ESE 1.4 km/h 6.4 km/h 74% 0.0 mm 0.0 W/m2
00:39 9.5 °C 5.1 °C 1026.6 hPa Calm   4.8 km/h 74% 0.0 mm 0.0 W/m2
00:44 9.4 °C 5.0 °C 1026.6 hPa Calm   4.8 km/h 74% 0.0 mm 0.0 W/m2
00:49 9.3 °C 4.9 °C 1026.6 hPa Calm   6.4 km/h 74% 0.0 mm 0.0 W/m2
00:54 9.2 °C 4.8 °C 1026.6 hPa East 3.2 km/h 8.0 km/h 74% 0.0 mm 0.0 W/m2
00:59 9.1 °C 4.7 °C 1026.6 hPa Calm   1.6 km/h 74% 0.0 mm 0.0 W/m2
01:04 9.0 °C 4.6 °C 1026.6 hPa Calm   8.0 km/h 74% 0.0 mm 0.0 W/m2
01:09 8.9 °C 4.5 °C 1026.6 hPa Calm   8.0 km/h 74% 0.0 mm 0.0 W/m2
01:14 8.8 °C 4.4 °C 1026.6 hPa Calm   4.8 km/h 74% 0.0 mm 0.0 W/m2
01:19 8.8 °C 4.4 °C 1026.6 hPa Calm   11.3 km/h 74% 0.0 mm 0.0 W/m2
01:24 8.7 °C 4.5 °C 1026.6 hPa ENE 1.4 km/h 9.7 km/h 75% 0.0 mm 0.0 W/m2
01:29 8.5 °C 4.3 °C 1026.6 hPa ENE 1.4 km/h 4.8 km/h 75% 0.0 mm 0.0 W/m2
01:34 8.4 °C 4.2 °C 1026.3 hPa ESE 4.7 km/h 8.0 km/h 75% 0.0 mm 0.0 W/m2
01:39 8.4 °C 4.2 °C 1026.3 hPa ESE 1.4 km/h 6.4 km/h 75% 0.0 mm 0.0 W/m2
01:44 8.3 °C 4.1 °C 1026.3 hPa Calm   3.2 km/h 75% 0.0 mm 0.0 W/m2
01:54 8.1 °C 3.9 °C 1026.3 hPa ESE 6.4 km/h 8.0 km/h 75% 0.0 mm 0.0 W/m2
01:59 8.0 °C 3.8 °C 1026.3 hPa ESE 1.4 km/h 4.8 km/h 75% 0.0 mm 0.0 W/m2
02:05 8.0 °C 3.8 °C 1026.3 hPa ESE 1.4 km/h 3.2 km/h 75% 0.0 mm 0.0 W/m2
02:10 8.0 °C 3.8 °C 1026.3 hPa ESE 6.4 km/h 6.4 km/h 75% 0.0 mm 0.0 W/m2
02:15 8.0 °C 3.8 °C 1026.3 hPa SE 4.7 km/h 4.8 km/h 75% 0.0 mm 0.0 W/m2
02:20 7.9 °C 3.7 °C 1026.3 hPa Calm   6.4 km/h 75% 0.0 mm 0.0 W/m2
02:25 8.0 °C 3.8 °C 1026.3 hPa ESE 4.7 km/h 8.0 km/h 75% 0.0 mm 0.0 W/m2
02:30 8.0 °C 3.8 °C 1026.3 hPa ESE 1.4 km/h 3.2 km/h 75% 0.0 mm 0.0 W/m2
02:35 7.9 °C 3.7 °C 1026.3 hPa Calm   3.2 km/h 75% 0.0 mm 0.0 W/m2
02:40 7.9 °C 3.7 °C 1026.3 hPa Calm   3.2 km/h 75% 0.0 mm 0.0 W/m2
02:45 7.8 °C 3.8 °C 1026.3 hPa ESE 4.7 km/h 4.8 km/h 76% 0.0 mm 0.0 W/m2
02:50 7.7 °C 3.5 °C 1026.0 hPa ESE 3.2 km/h 4.8 km/h 75% 0.0 mm 0.0 W/m2
02:55 7.5 °C 3.5 °C 1026.3 hPa ESE 4.7 km/h 4.8 km/h 76% 0.0 mm 0.0 W/m2
03:00 7.4 °C 3.4 °C 1026.3 hPa ESE 4.7 km/h 4.8 km/h 76% 0.0 mm 0.0 W/m2
03:05 7.3 °C 3.3 °C 1026.0 hPa ESE 1.4 km/h 1.6 km/h 76% 0.0 mm 0.0 W/m2
03:10 7.2 °C 3.3 °C 1026.0 hPa ESE 1.4 km/h 1.6 km/h 76% 0.0 mm 0.0 W/m2
03:15 7.2 °C 3.4 °C 1026.3 hPa Calm   1.6 km/h 77% 0.0 mm 0.0 W/m2
03:20 7.0 °C 3.2 °C 1026.3 hPa Calm   3.2 km/h 77% 0.0 mm 0.0 W/m2
03:25 6.9 °C 3.3 °C 1026.3 hPa Calm   3.2 km/h 78% 0.0 mm 0.0 W/m2
03:30 6.8 °C 3.2 °C 1026.3 hPa Calm   1.6 km/h 78% 0.0 mm 0.0 W/m2
03:35 6.8 °C 3.4 °C 1026.3 hPa ESE 3.2 km/h 6.4 km/h 79% 0.0 mm 0.0 W/m2
03:40 6.7 °C 3.3 °C 1026.3 hPa Calm   8.0 km/h 79% 0.0 mm 0.0 W/m2
03:45 6.6 °C 3.2 °C 1026.3 hPa ESE 3.2 km/h 6.4 km/h 79% 0.0 mm 0.0 W/m2
03:50 6.5 °C 3.3 °C 1026.3 hPa ESE 1.4 km/h 3.2 km/h 80% 0.0 mm 0.0 W/m2
03:55 6.5 °C 3.3 °C 1026.3 hPa Calm   3.2 km/h 80% 0.0 mm 0.0 W/m2
04:00 6.5 °C 3.3 °C 1026.3 hPa Calm   1.6 km/h 80% 0.0 mm 0.0 W/m2
04:05 6.4 °C 3.4 °C 1026.3 hPa Calm   3.2 km/h 81% 0.0 mm 0.0 W/m2
04:10 6.3 °C 3.3 °C 1026.3 hPa Calm   3.2 km/h 81% 0.0 mm 0.0 W/m2
04:15 6.3 °C 3.3 °C 1026.3 hPa ESE 1.4 km/h 3.2 km/h 81% 0.0 mm 0.0 W/m2
04:20 6.3 °C 3.5 °C 1026.3 hPa ESE 1.4 km/h 4.8 km/h 82% 0.0 mm 0.0 W/m2
04:25 6.2 °C 3.4 °C 1026.3 hPa Calm   3.2 km/h 82% 0.0 mm 0.0 W/m2
04:30 6.2 °C 3.4 °C 1026.0 hPa Calm   3.2 km/h 82% 0.0 mm 0.0 W/m2
04:35 6.2 °C 3.4 °C 1026.3 hPa Calm   3.2 km/h 82% 0.0 mm 0.0 W/m2
04:40 6.2 °C 3.4 °C 1026.3 hPa ESE 1.4 km/h 4.8 km/h 82% 0.0 mm 0.0 W/m2
04:45 6.2 °C 3.4 °C 1026.3 hPa Calm   1.6 km/h 82% 0.0 mm 0.0 W/m2
04:50 6.1 °C 3.3 °C 1026.3 hPa Calm   3.2 km/h 82% 0.0 mm 0.0 W/m2
04:55 6.1 °C 3.3 °C 1026.3 hPa Calm   1.6 km/h 82% 0.0 mm 0.0 W/m2
05:00 6.0 °C 3.2 °C 1026.3 hPa Calm   1.6 km/h 82% 0.0 mm 0.0 W/m2
05:05 5.9 °C 3.1 °C 1026.3 hPa Calm   1.6 km/h 82% 0.0 mm 0.0 W/m2
05:10 5.9 °C 3.1 °C 1026.3 hPa Calm   3.2 km/h 82% 0.0 mm 0.0 W/m2
05:15 5.7 °C 2.9 °C 1026.3 hPa Calm   3.2 km/h 82% 0.0 mm 5.0 W/m2
05:20 5.6 °C 2.9 °C 1026.3 hPa ESE 1.4 km/h 3.2 km/h 83% 0.0 mm 7.0 W/m2
05:25 5.5 °C 2.8 °C 1026.3 hPa Calm   1.6 km/h 83% 0.0 mm 11.0 W/m2
05:30 5.5 °C 2.8 °C 1026.3 hPa ESE 1.4 km/h 1.6 km/h 83% 0.0 mm 12.0 W/m2
05:35 5.4 °C 2.9 °C 1026.3 hPa Calm   1.6 km/h 84% 0.0 mm 16.0 W/m2
05:40 5.4 °C 2.9 °C 1026.3 hPa Calm     84% 0.0 mm 18.0 W/m2
05:45 5.4 °C 2.9 °C 1026.3 hPa Calm     84% 0.0 mm 19.0 W/m2
05:50 5.3 °C 2.8 °C 1026.3 hPa Calm     84% 0.0 mm 23.0 W/m2
05:55 5.3 °C 2.8 °C 1026.6 hPa Calm     84% 0.0 mm 25.0 W/m2
06:00 5.4 °C 2.9 °C 1026.3 hPa Calm     84% 0.0 mm 28.0 W/m2
06:05 5.4 °C 2.9 °C 1026.6 hPa Calm     84% 0.0 mm 35.0 W/m2
06:10 5.4 °C 3.1 °C 1026.6 hPa Calm     85% 0.0 mm 40.0 W/m2
06:15 5.4 °C 3.1 °C 1026.6 hPa Calm     85% 0.0 mm 44.0 W/m2
06:20 5.4 °C 3.1 °C 1026.6 hPa Calm     85% 0.0 mm 51.0 W/m2
06:26 5.5 °C 3.2 °C 1026.6 hPa Calm     85% 0.0 mm 54.0 W/m2
06:31 5.6 °C 3.3 °C 1026.6 hPa Calm     85% 0.0 mm 62.0 W/m2
06:36 5.7 °C 3.4 °C 1026.3 hPa Calm     85% 0.0 mm 67.0 W/m2
06:41 5.7 °C 3.4 °C 1026.3 hPa Calm     85% 0.0 mm 76.0 W/m2
06:46 5.8 °C 3.5 °C 1026.3 hPa Calm   3.2 km/h 85% 0.0 mm 84.0 W/m2
06:51 6.0 °C 3.7 °C 1026.3 hPa Calm   1.6 km/h 85% 0.0 mm 91.0 W/m2
06:56 6.1 °C 3.8 °C 1026.3 hPa Calm     85% 0.0 mm 98.0 W/m2
07:01 6.3 °C 4.0 °C 1026.6 hPa Calm   1.6 km/h 85% 0.0 mm 100.0 W/m2
07:06 6.6 °C 4.1 °C 1026.3 hPa Calm   4.8 km/h 84% 0.0 mm 100.0 W/m2
07:11 6.7 °C 4.2 °C 1026.3 hPa Calm   3.2 km/h 84% 0.0 mm 107.0 W/m2
07:16 7.0 °C 4.3 °C 1026.6 hPa ESE 3.2 km/h 3.2 km/h 83% 0.0 mm 125.0 W/m2
07:26 7.3 °C 4.4 °C 1026.6 hPa ESE 1.4 km/h 1.6 km/h 82% 0.0 mm 163.0 W/m2
07:31 7.5 °C 4.5 °C 1026.6 hPa Calm   3.2 km/h 81% 0.0 mm 171.0 W/m2
07:36 7.7 °C 4.5 °C 1026.6 hPa ESE 1.4 km/h 3.2 km/h 80% 0.0 mm 178.0 W/m2
07:41 7.9 °C 4.7 °C 1026.6 hPa Calm   3.2 km/h 80% 0.0 mm 206.0 W/m2
07:46 8.1 °C 4.7 °C 1026.3 hPa ESE 1.4 km/h 3.2 km/h 79% 0.0 mm 227.0 W/m2
07:51 8.3 °C 4.9 °C 1026.6 hPa ESE 4.7 km/h 4.8 km/h 79% 0.0 mm 225.0 W/m2
07:56 8.4 °C 4.6 °C 1026.3 hPa ESE 4.7 km/h 6.4 km/h 77% 0.0 mm 272.0 W/m2
08:01 8.9 °C 5.1 °C 1026.6 hPa ESE 3.2 km/h 4.8 km/h 77% 0.0 mm 276.0 W/m2
08:06 8.9 °C 4.7 °C 1026.3 hPa SE 1.4 km/h 6.4 km/h 75% 0.0 mm 301.0 W/m2
08:11 9.5 °C 5.5 °C 1026.6 hPa SE 1.4 km/h 1.6 km/h 76% 0.0 mm 308.0 W/m2
08:16 9.5 °C 5.3 °C 1026.6 hPa Calm   1.6 km/h 75% 0.0 mm 322.0 W/m2
08:21 10.6 °C 6.2 °C 1026.6 hPa SE 1.4 km/h 3.2 km/h 74% 0.0 mm 348.0 W/m2
08:26 10.6 °C 5.8 °C 1026.6 hPa Calm   4.8 km/h 72% 0.0 mm 367.0 W/m2
08:31 11.2 °C 6.3 °C 1026.3 hPa SE 1.4 km/h 8.0 km/h 72% 0.0 mm 367.0 W/m2
08:36 11.0 °C 5.5 °C 1026.6 hPa SE 3.2 km/h 3.2 km/h 69% 0.0 mm 399.0 W/m2
08:41 11.7 °C 6.6 °C 1026.3 hPa Calm   1.6 km/h 71% 0.0 mm 396.0 W/m2
08:46 11.0 °C 5.7 °C 1026.6 hPa East 3.2 km/h 4.8 km/h 70% 0.0 mm 427.0 W/m2
08:51 10.9 °C 6.1 °C 1026.6 hPa East 1.4 km/h 4.8 km/h 72% 0.0 mm 441.0 W/m2
08:56 10.7 °C 6.1 °C 1026.6 hPa SSE 6.4 km/h 8.0 km/h 73% 0.0 mm 466.0 W/m2
09:01 10.4 °C 6.0 °C 1026.6 hPa SSE 3.2 km/h 6.4 km/h 74% 0.0 mm 492.0 W/m2
09:06 10.7 °C 6.3 °C 1026.3 hPa SSE 1.4 km/h 1.6 km/h 74% 0.0 mm 246.0 W/m2
09:11 11.0 °C 5.7 °C 1026.3 hPa SSE 1.4 km/h 8.0 km/h 70% 0.0 mm 513.0 W/m2
09:16 11.4 °C 6.1 °C 1026.3 hPa Calm   3.2 km/h 70% 0.0 mm 381.0 W/m2
09:21 12.3 °C 6.6 °C 1026.3 hPa Calm   3.2 km/h 68% 0.0 mm 483.0 W/m2
09:26 12.0 °C 6.3 °C 1026.3 hPa Calm   8.0 km/h 68% 0.0 mm 443.0 W/m2
09:31 12.0 °C 6.1 °C 1026.3 hPa Calm   4.8 km/h 67% 0.0 mm 526.0 W/m2
09:36 11.9 °C 6.2 °C 1026.3 hPa SE 1.4 km/h 8.0 km/h 68% 0.0 mm 596.0 W/m2
09:41 12.4 °C 6.4 °C 1026.3 hPa ESE 1.4 km/h 6.4 km/h 67% 0.0 mm 598.0 W/m2
09:46 13.7 °C 6.8 °C 1026.3 hPa Calm   4.8 km/h 63% 0.0 mm 591.0 W/m2
09:51 12.8 °C 5.9 °C 1026.3 hPa SSE 6.4 km/h 8.0 km/h 63% 0.0 mm 533.0 W/m2
09:56 13.6 °C 6.5 °C 1026.3 hPa NE 4.7 km/h 6.4 km/h 62% 0.0 mm 548.0 W/m2
10:01 14.1 °C 7.8 °C 1026.3 hPa ENE 3.2 km/h 8.0 km/h 66% 0.0 mm 533.0 W/m2
10:06 14.6 °C 7.4 °C 1026.3 hPa NE 6.4 km/h 6.4 km/h 62% 0.0 mm 563.0 W/m2
10:11 14.7 °C 7.5 °C 1026.3 hPa ENE 3.2 km/h 8.0 km/h 62% 0.0 mm 571.0 W/m2
10:21 14.5 °C 7.3 °C 1026.0 hPa ENE 3.2 km/h 4.8 km/h 62% 0.0 mm 601.0 W/m2
10:26 15.0 °C 7.1 °C 1026.0 hPa NE 3.2 km/h 3.2 km/h 59% 0.0 mm 657.0 W/m2
10:31 13.3 °C 6.4 °C 1026.0 hPa South 1.4 km/h 4.8 km/h 63% 0.0 mm 666.0 W/m2
10:36 13.2 °C 6.8 °C 1026.0 hPa Calm   6.4 km/h 65% 0.0 mm 629.0 W/m2
10:41 14.4 °C 7.4 °C 1026.0 hPa SSE 3.2 km/h 4.8 km/h 63% 0.0 mm 647.0 W/m2
10:46 15.7 °C 8.0 °C 1026.0 hPa ESE 1.4 km/h 8.0 km/h 60% 0.0 mm 615.0 W/m2
10:51 15.8 °C 7.8 °C 1026.0 hPa Calm   4.8 km/h 59% 0.0 mm 629.0 W/m2
10:56 16.0 °C 8.0 °C 1025.6 hPa Calm   8.0 km/h 59% 0.0 mm 717.0 W/m2
11:01 16.4 °C 8.1 °C 1025.6 hPa Calm   6.4 km/h 58% 0.0 mm 698.0 W/m2
11:06 16.2 °C 7.7 °C 1025.6 hPa East 1.4 km/h 8.0 km/h 57% 0.0 mm 613.0 W/m2
11:11 15.0 °C 7.3 °C 1025.6 hPa Calm   1.6 km/h 60% 0.0 mm 700.0 W/m2
11:16 15.3 °C 7.8 °C 1025.6 hPa Calm   1.6 km/h 61% 0.0 mm 705.0 W/m2
11:21 15.7 °C 7.7 °C 1025.6 hPa ENE 1.4 km/h 4.8 km/h 59% 0.0 mm 768.0 W/m2
11:26 15.5 °C 7.5 °C 1025.6 hPa ENE 1.4 km/h 6.4 km/h 59% 0.0 mm 784.0 W/m2
11:31 15.7 °C 7.5 °C 1025.6 hPa NNE 1.4 km/h 8.0 km/h 58% 0.0 mm 812.0 W/m2
11:36 15.7 °C 8.0 °C 1025.6 hPa North 3.2 km/h 6.4 km/h 60% 0.0 mm 737.0 W/m2
11:41 15.7 °C 7.7 °C 1025.3 hPa SE 6.4 km/h 14.5 km/h 59% 0.0 mm 724.0 W/m2
11:46 15.5 °C 7.8 °C 1025.6 hPa Calm   8.0 km/h 60% 0.0 mm 765.0 W/m2
11:51 16.6 °C 8.6 °C 1025.6 hPa Calm   3.2 km/h 59% 0.0 mm 765.0 W/m2
11:56 17.8 °C 8.4 °C 1025.6 hPa ENE 4.7 km/h 11.3 km/h 54% 0.0 mm 737.0 W/m2
12:01 18.3 °C 8.8 °C 1025.3 hPa ENE 1.4 km/h 4.8 km/h 54% 0.0 mm 770.0 W/m2
12:06 16.7 °C 8.1 °C 1025.3 hPa WNW 1.4 km/h 4.8 km/h 57% 0.0 mm 788.0 W/m2
12:11 16.6 °C 8.0 °C 1025.3 hPa NNW 4.7 km/h 8.0 km/h 57% 0.0 mm 701.0 W/m2
12:16 16.5 °C 7.7 °C 1025.3 hPa North 6.4 km/h 8.0 km/h 56% 0.0 mm 821.0 W/m2
12:21 17.2 °C 8.9 °C 1025.3 hPa North 1.4 km/h 3.2 km/h 58% 0.0 mm 842.0 W/m2
12:26 17.8 °C 8.4 °C 1025.3 hPa Calm   8.0 km/h 54% 0.0 mm 872.0 W/m2
12:31 17.6 °C 8.2 °C 1025.3 hPa West 4.7 km/h 9.7 km/h 54% 0.0 mm 891.0 W/m2
12:36 16.7 °C 7.9 °C 1025.3 hPa NW 7.9 km/h 14.5 km/h 56% 0.0 mm 752.0 W/m2
12:41 17.2 °C 8.9 °C 1025.3 hPa Calm   6.4 km/h 58% 0.0 mm 661.0 W/m2
12:46 17.8 °C 8.6 °C 1025.3 hPa NW 3.2 km/h 8.0 km/h 55% 0.0 mm 791.0 W/m2
12:51 18.3 °C 8.6 °C 1025.3 hPa ENE 7.9 km/h 11.3 km/h 53% 0.0 mm 751.0 W/m2
12:56 18.2 °C 8.2 °C 1024.9 hPa NNE 4.7 km/h 6.4 km/h 52% 0.0 mm 754.0 W/m2
13:01 17.4 °C 8.0 °C 1024.9 hPa NNE 3.2 km/h 12.9 km/h 54% 0.0 mm 749.0 W/m2
13:06 17.9 °C 8.7 °C 1024.9 hPa Calm   4.8 km/h 55% 0.0 mm 851.0 W/m2
13:11 17.7 °C 8.3 °C 1024.9 hPa North 7.9 km/h 9.7 km/h 54% 0.0 mm 807.0 W/m2
13:16 17.6 °C 8.5 °C 1024.9 hPa North 4.7 km/h 6.4 km/h 55% 0.0 mm 729.0 W/m2
13:21 19.0 °C 8.9 °C 1024.9 hPa WNW 3.2 km/h 6.4 km/h 52% 0.0 mm 860.0 W/m2
13:26 20.0 °C 9.6 °C 1024.9 hPa East 7.9 km/h 8.0 km/h 51% 0.0 mm 705.0 W/m2
13:31 20.2 °C 9.1 °C 1024.9 hPa ENE 3.2 km/h 6.4 km/h 49% 0.0 mm 726.0 W/m2
13:36 19.8 °C 8.8 °C 1024.9 hPa NW 4.7 km/h 11.3 km/h 49% 0.0 mm 824.0 W/m2
13:41 17.7 °C 8.3 °C 1024.9 hPa NNW 3.2 km/h 11.3 km/h 54% 0.0 mm 434.0 W/m2
13:46 18.0 °C 8.6 °C 1024.6 hPa NE 7.9 km/h 14.5 km/h 54% 0.0 mm 589.0 W/m2
13:51 19.3 °C 8.9 °C 1024.6 hPa Calm   6.4 km/h 51% 0.0 mm 596.0 W/m2
13:56 17.9 °C 7.6 °C 1024.6 hPa North 7.9 km/h 9.7 km/h 51% 0.0 mm 694.0 W/m2
14:01 17.5 °C 7.8 °C 1024.6 hPa NNW 4.7 km/h 6.4 km/h 53% 0.0 mm 705.0 W/m2
14:06 17.4 °C 8.0 °C 1024.6 hPa NE 1.4 km/h 11.3 km/h 54% 0.0 mm 673.0 W/m2
14:11 18.5 °C 8.2 °C 1024.6 hPa Calm   6.4 km/h 51% 0.0 mm 629.0 W/m2
14:16 18.9 °C 8.2 °C 1024.6 hPa NNE 1.4 km/h 4.8 km/h 50% 0.0 mm 633.0 W/m2
14:21 18.0 °C 7.7 °C 1024.6 hPa NW 6.4 km/h 11.3 km/h 51% 0.0 mm 413.0 W/m2
14:26 17.8 °C 8.1 °C 1024.6 hPa NW 6.4 km/h 14.5 km/h 53% 0.0 mm 680.0 W/m2
14:31 17.5 °C 8.1 °C 1024.6 hPa Calm   6.4 km/h 54% 0.0 mm 656.0 W/m2
14:36 18.3 °C 8.0 °C 1024.6 hPa NE 1.4 km/h 11.3 km/h 51% 0.0 mm 631.0 W/m2
14:41 17.7 °C 8.0 °C 1024.6 hPa NW 4.7 km/h 14.5 km/h 53% 0.0 mm 480.0 W/m2
14:46 17.5 °C 8.1 °C 1024.6 hPa NW 3.2 km/h 4.8 km/h 54% 0.0 mm 432.0 W/m2
14:51 17.9 °C 7.9 °C 1024.6 hPa North 4.7 km/h 11.3 km/h 52% 0.0 mm 397.0 W/m2
14:56 17.7 °C 8.3 °C 1024.6 hPa NNW 4.7 km/h 9.7 km/h 54% 0.0 mm 568.0 W/m2
15:01 17.3 °C 8.2 °C 1024.3 hPa NNW 1.4 km/h 11.3 km/h 55% 0.0 mm 513.0 W/m2
15:06 18.4 °C 8.4 °C 1024.3 hPa ENE 7.9 km/h 14.5 km/h 52% 0.0 mm 550.0 W/m2
15:11 19.2 °C 8.8 °C 1024.3 hPa NNE 3.2 km/h 8.0 km/h 51% 0.0 mm 497.0 W/m2
15:16 17.5 °C 7.2 °C 1024.3 hPa NNE 6.4 km/h 11.3 km/h 51% 0.0 mm 478.0 W/m2
15:21 17.7 °C 7.7 °C 1024.3 hPa ENE 3.2 km/h 6.4 km/h 52% 0.0 mm 508.0 W/m2
15:26 17.8 °C 7.8 °C 1024.3 hPa North 3.2 km/h 11.3 km/h 52% 0.0 mm 413.0 W/m2
15:31 17.8 °C 8.1 °C 1024.3 hPa NNE 3.2 km/h 8.0 km/h 53% 0.0 mm 501.0 W/m2
15:36 18.1 °C 8.1 °C 1024.3 hPa NNE 3.2 km/h 6.4 km/h 52% 0.0 mm 513.0 W/m2
15:41 18.1 °C 8.1 °C 1024.3 hPa North 1.4 km/h 4.8 km/h 52% 0.0 mm 541.0 W/m2
15:46 18.2 °C 8.7 °C 1023.9 hPa North 9.7 km/h 12.9 km/h 54% 0.0 mm 612.0 W/m2
15:52 17.4 °C 8.0 °C 1023.9 hPa NNW 7.9 km/h 12.9 km/h 54% 0.0 mm 589.0 W/m2
15:57 18.2 °C 8.2 °C 1023.9 hPa NNE 7.9 km/h 11.3 km/h 52% 0.0 mm 446.0 W/m2
16:02 17.9 °C 8.2 °C 1023.9 hPa NW 7.9 km/h 8.0 km/h 53% 0.0 mm 476.0 W/m2
16:07 17.9 °C 8.5 °C 1023.9 hPa North 9.7 km/h 9.7 km/h 54% 0.0 mm 452.0 W/m2
16:12 18.0 °C 8.0 °C 1023.9 hPa NW 1.4 km/h 3.2 km/h 52% 0.0 mm 533.0 W/m2
16:17 18.8 °C 8.4 °C 1023.9 hPa East 4.7 km/h 6.4 km/h 51% 0.0 mm 487.0 W/m2
16:22 19.8 °C 8.5 °C 1023.9 hPa NNW 3.2 km/h 9.7 km/h 48% 0.0 mm 577.0 W/m2
16:27 18.2 °C 7.9 °C 1023.9 hPa NW 1.4 km/h 11.3 km/h 51% 0.0 mm 605.0 W/m2
16:32 18.6 °C 8.6 °C 1023.9 hPa Calm   3.2 km/h 52% 0.0 mm 578.0 W/m2
16:37 19.0 °C 8.6 °C 1023.9 hPa WNW 6.4 km/h 9.7 km/h 51% 0.0 mm 547.0 W/m2
16:42 18.4 °C 8.4 °C 1023.9 hPa North 7.9 km/h 11.3 km/h 52% 0.0 mm 640.0 W/m2
16:47 18.8 °C 8.4 °C 1023.9 hPa North 7.9 km/h 17.7 km/h 51% 0.0 mm 589.0 W/m2
16:52 18.6 °C 8.6 °C 1023.9 hPa NE 6.4 km/h 12.9 km/h 52% 0.0 mm 471.0 W/m2
16:57 18.2 °C 8.2 °C 1023.9 hPa NNW 11.1 km/h 11.3 km/h 52% 0.0 mm 239.0 W/m2
17:02 17.9 °C 8.5 °C 1023.9 hPa NW 4.7 km/h 11.3 km/h 54% 0.0 mm 257.0 W/m2
17:07 18.0 °C 8.6 °C 1023.9 hPa NW 1.4 km/h 9.7 km/h 54% 0.0 mm 527.0 W/m2
17:12 18.4 °C 8.4 °C 1023.9 hPa NE 3.2 km/h 12.9 km/h 52% 0.0 mm 274.0 W/m2
17:17 18.7 °C 8.6 °C 1023.9 hPa North 6.4 km/h 9.7 km/h 52% 0.0 mm 482.0 W/m2
17:22 19.2 °C 8.8 °C 1023.9 hPa NNE 4.7 km/h 11.3 km/h 51% 0.0 mm 564.0 W/m2
17:27 19.1 °C 9.0 °C 1023.9 hPa NNE 4.7 km/h 8.0 km/h 52% 0.0 mm 561.0 W/m2
17:32 19.7 °C 9.3 °C 1023.9 hPa NNE 6.4 km/h 9.7 km/h 51% 0.0 mm 545.0 W/m2
17:37 19.5 °C 9.1 °C 1023.9 hPa NNE 4.7 km/h 9.7 km/h 51% 0.0 mm 517.0 W/m2
17:42 19.0 °C 8.6 °C 1023.6 hPa NW 1.4 km/h 11.3 km/h 51% 0.0 mm 487.0 W/m2
17:47 18.6 °C 8.6 °C 1023.6 hPa North 4.7 km/h 11.3 km/h 52% 0.0 mm 476.0 W/m2
17:52 18.6 °C 8.8 °C 1023.6 hPa North 9.7 km/h 16.1 km/h 53% 0.0 mm 466.0 W/m2
17:57 18.4 °C 8.6 °C 1023.6 hPa NW 1.4 km/h 9.7 km/h 53% 0.0 mm 475.0 W/m2
18:02 18.4 °C 8.4 °C 1023.6 hPa WNW 1.4 km/h 9.7 km/h 52% 0.0 mm 432.0 W/m2
18:07 18.8 °C 8.7 °C 1023.6 hPa North 7.9 km/h 14.5 km/h 52% 0.0 mm 411.0 W/m2
18:12 18.8 °C 8.7 °C 1023.6 hPa NNE 7.9 km/h 14.5 km/h 52% 0.0 mm 394.0 W/m2
18:17 18.4 °C 8.6 °C 1023.6 hPa North 11.1 km/h 12.9 km/h 53% 0.0 mm 373.0 W/m2
18:22 18.4 °C 8.6 °C 1023.6 hPa NNW 9.7 km/h 14.5 km/h 53% 0.0 mm 345.0 W/m2
18:27 18.4 °C 8.6 °C 1023.6 hPa NNW 9.7 km/h 12.9 km/h 53% 0.0 mm 318.0 W/m2
18:32 18.4 °C 8.6 °C 1023.6 hPa NNE 6.4 km/h 8.0 km/h 53% 0.0 mm 294.0 W/m2
18:37 18.7 °C 8.9 °C 1023.6 hPa NNW 7.9 km/h 9.7 km/h 53% 0.0 mm 239.0 W/m2
18:42 18.5 °C 8.7 °C 1023.6 hPa NNW 6.4 km/h 9.7 km/h 53% 0.0 mm 287.0 W/m2
18:47 18.3 °C 8.8 °C 1023.6 hPa NW 6.4 km/h 11.3 km/h 54% 0.0 mm 264.0 W/m2
18:52 18.3 °C 8.8 °C 1023.6 hPa North 1.4 km/h 8.0 km/h 54% 0.0 mm 176.0 W/m2
18:57 18.2 °C 8.7 °C 1023.6 hPa North 7.9 km/h 11.3 km/h 54% 0.0 mm 239.0 W/m2
19:02 18.0 °C 8.8 °C 1023.6 hPa North 6.4 km/h 6.4 km/h 55% 0.0 mm 223.0 W/m2
19:07 18.3 °C 8.8 °C 1023.6 hPa Calm   6.4 km/h 54% 0.0 mm 209.0 W/m2
19:12 18.5 °C 9.0 °C 1023.6 hPa North 3.2 km/h 4.8 km/h 54% 0.0 mm 186.0 W/m2
19:17 18.8 °C 9.0 °C 1023.6 hPa North 3.2 km/h 6.4 km/h 53% 0.0 mm 179.0 W/m2
19:22 18.8 °C 9.0 °C 1023.6 hPa North 1.4 km/h 6.4 km/h 53% 0.0 mm 162.0 W/m2
19:27 19.0 °C 9.2 °C 1023.6 hPa North 1.4 km/h 4.8 km/h 53% 0.0 mm 158.0 W/m2
19:32 19.4 °C 9.3 °C 1023.6 hPa Calm   1.6 km/h 52% 0.0 mm 146.0 W/m2
19:37 19.7 °C 9.6 °C 1023.6 hPa Calm   1.6 km/h 52% 0.0 mm 127.0 W/m2
19:42 19.1 °C 9.0 °C 1023.6 hPa NNW 1.4 km/h 4.8 km/h 52% 0.0 mm 102.0 W/m2
19:47 18.5 °C 9.0 °C 1023.6 hPa NNW 1.4 km/h 3.2 km/h 54% 0.0 mm 90.0 W/m2
19:52 18.3 °C 9.4 °C 1023.6 hPa NNW 4.7 km/h 6.4 km/h 56% 0.0 mm 77.0 W/m2
19:57 17.7 °C 9.1 °C 1023.6 hPa NW 7.9 km/h 9.7 km/h 57% 0.0 mm 65.0 W/m2
20:02 17.3 °C 9.0 °C 1023.6 hPa NW 9.7 km/h 9.7 km/h 58% 0.0 mm 54.0 W/m2
20:07 17.2 °C 9.1 °C 1023.6 hPa NW 6.4 km/h 6.4 km/h 59% 0.0 mm 47.0 W/m2
20:12 17.1 °C 9.0 °C 1023.6 hPa NW 4.7 km/h 4.8 km/h 59% 0.0 mm 39.0 W/m2
20:17 17.3 °C 9.2 °C 1023.2 hPa NW 3.2 km/h 3.2 km/h 59% 0.0 mm 32.0 W/m2
20:22 17.3 °C 9.5 °C 1023.2 hPa NW 1.4 km/h 4.8 km/h 60% 0.0 mm 23.0 W/m2
20:27 17.2 °C 9.4 °C 1023.6 hPa NW 3.2 km/h 3.2 km/h 60% 0.0 mm 18.0 W/m2
20:32 16.9 °C 9.1 °C 1023.6 hPa NW 1.4 km/h 6.4 km/h 60% 0.0 mm 14.0 W/m2
20:37 16.7 °C 9.1 °C 1023.6 hPa NW 1.4 km/h 4.8 km/h 61% 0.0 mm 12.0 W/m2
20:42 16.5 °C 9.2 °C 1023.6 hPa NW 1.4 km/h 3.2 km/h 62% 0.0 mm 9.0 W/m2
20:47 16.0 °C 9.2 °C 1023.6 hPa West 7.9 km/h 8.0 km/h 64% 0.0 mm 7.0 W/m2
20:52 15.5 °C 8.9 °C 1023.6 hPa West 3.2 km/h 8.0 km/h 65% 0.0 mm 5.0 W/m2
20:57 15.3 °C 9.0 °C 1023.6 hPa West 1.4 km/h 3.2 km/h 66% 0.0 mm 0.0 W/m2
21:02 15.2 °C 9.1 °C 1023.6 hPa Calm   1.6 km/h 67% 0.0 mm 0.0 W/m2
21:07 14.9 °C 8.8 °C 1023.9 hPa Calm   3.2 km/h 67% 0.0 mm 0.0 W/m2
21:12 14.9 °C 8.8 °C 1023.9 hPa West 1.4 km/h 3.2 km/h 67% 0.0 mm 0.0 W/m2
21:17 14.7 °C 8.9 °C 1023.9 hPa West 1.4 km/h 1.6 km/h 68% 0.0 mm 0.0 W/m2
21:22 14.5 °C 8.7 °C 1023.9 hPa West 1.4 km/h 3.2 km/h 68% 0.0 mm 0.0 W/m2
21:28 14.4 °C 8.8 °C 1023.9 hPa West 3.2 km/h 3.2 km/h 69% 0.0 mm 0.0 W/m2
21:33 14.3 °C 8.7 °C 1023.9 hPa Calm     69% 0.0 mm 0.0 W/m2
21:38 14.0 °C 8.6 °C 1023.9 hPa Calm     70% 0.0 mm 0.0 W/m2
21:43 13.8 °C 8.4 °C 1023.9 hPa Calm     70% 0.0 mm 0.0 W/m2
21:48 13.7 °C 8.3 °C 1023.9 hPa Calm     70% 0.0 mm 0.0 W/m2
21:53 13.7 °C 8.3 °C 1023.9 hPa Calm     70% 0.0 mm 0.0 W/m2
21:58 13.5 °C 8.3 °C 1023.9 hPa Calm   1.6 km/h 71% 0.0 mm 0.0 W/m2
22:03 13.4 °C 8.2 °C 1023.9 hPa West 1.4 km/h 3.2 km/h 71% 0.0 mm 0.0 W/m2
22:08 12.9 °C 8.0 °C 1023.9 hPa West 1.4 km/h 3.2 km/h 72% 0.0 mm 0.0 W/m2
22:13 12.7 °C 7.8 °C 1023.9 hPa Calm     72% 0.0 mm 0.0 W/m2
22:18 12.7 °C 7.8 °C 1023.9 hPa West 1.4 km/h 1.6 km/h 72% 0.0 mm 0.0 W/m2
22:23 12.5 °C 7.6 °C 1023.9 hPa West 3.2 km/h 6.4 km/h 72% 0.0 mm 0.0 W/m2
22:28 12.4 °C 7.5 °C 1023.9 hPa West 1.4 km/h 1.6 km/h 72% 0.0 mm 0.0 W/m2
22:33 12.3 °C 7.4 °C 1023.9 hPa West 1.4 km/h 4.8 km/h 72% 0.0 mm 0.0 W/m2
22:38 12.1 °C 7.2 °C 1023.9 hPa Calm     72% 0.0 mm 0.0 W/m2
22:43 12.0 °C 7.3 °C 1023.9 hPa Calm   1.6 km/h 73% 0.0 mm 0.0 W/m2
22:48 11.7 °C 7.0 °C 1023.9 hPa Calm   1.6 km/h 73% 0.0 mm 0.0 W/m2
22:53 11.5 °C 7.0 °C 1023.9 hPa Calm     74% 0.0 mm 0.0 W/m2
22:58 11.4 °C 6.9 °C 1023.9 hPa West 3.2 km/h 6.4 km/h 74% 0.0 mm 0.0 W/m2
23:03 11.3 °C 6.8 °C 1023.9 hPa West 1.4 km/h 3.2 km/h 74% 0.0 mm 0.0 W/m2
23:08 11.2 °C 6.7 °C 1023.9 hPa West 3.2 km/h 3.2 km/h 74% 0.0 mm 0.0 W/m2
23:13 11.2 °C 6.7 °C 1023.9 hPa Calm   3.2 km/h 74% 0.0 mm 0.0 W/m2
23:18 11.1 °C 6.6 °C 1023.9 hPa Calm     74% 0.0 mm 0.0 W/m2
23:23 11.1 °C 6.6 °C 1023.9 hPa Calm     74% 0.0 mm 0.0 W/m2
23:28 10.9 °C 6.4 °C 1023.9 hPa Calm     74% 0.0 mm 0.0 W/m2
23:33 10.8 °C 6.5 °C 1023.9 hPa Calm     75% 0.0 mm 0.0 W/m2
23:38 10.7 °C 6.4 °C 1023.9 hPa Calm     75% 0.0 mm 0.0 W/m2
23:43 10.5 °C 6.3 °C 1023.9 hPa Calm     75% 0.0 mm 0.0 W/m2
23:48 10.5 °C 6.3 °C 1023.9 hPa Calm     75% 0.0 mm 0.0 W/m2
23:58 10.3 °C 6.1 °C 1023.9 hPa Calm     75% 0.0 mm 0.0 W/m2